createdAt,value
2022-08-26T00:00:57.452Z,100568.80
2022-08-26T00:06:01.548Z,100565.00
2022-08-26T00:11:07.799Z,100556.40
2022-08-26T00:16:13.667Z,100553.00
2022-08-26T00:21:19.053Z,100550.80
2022-08-26T00:26:23.449Z,100555.00
2022-08-26T00:31:33.431Z,100555.00
2022-08-26T00:36:40.754Z,100548.00
2022-08-26T00:41:45.184Z,100541.40
2022-08-26T00:47:00.368Z,100538.80
2022-08-26T00:52:13.282Z,100533.80
2022-08-26T00:57:21.896Z,100531.00
2022-08-26T01:02:26.506Z,100539.00
2022-08-26T01:07:35.466Z,100539.60
2022-08-26T01:12:51.640Z,100543.20
2022-08-26T01:17:55.985Z,100544.60
2022-08-26T01:23:05.146Z,100538.20
2022-08-26T01:28:17.349Z,100534.80
2022-08-26T01:33:42.232Z,100537.80
2022-08-26T01:38:47.357Z,100540.00
2022-08-26T01:43:56.237Z,100538.60
2022-08-26T01:49:06.477Z,100539.20
2022-08-26T01:54:13.876Z,100541.80
2022-08-26T01:59:20.788Z,100537.80
2022-08-26T02:04:34.422Z,100538.60
2022-08-26T02:09:41.632Z,100537.60
2022-08-26T02:14:54.336Z,100540.40
2022-08-26T02:19:59.201Z,100533.40
2022-08-26T02:25:52.452Z,100531.60
2022-08-26T02:30:56.834Z,100530.60
2022-08-26T02:36:01.332Z,100530.80
2022-08-26T02:41:06.507Z,100527.00
2022-08-26T02:46:12.313Z,100527.60
2022-08-26T02:51:25.817Z,100530.60
2022-08-26T02:56:30.055Z,100527.80
2022-08-26T03:01:36.902Z,100531.20
2022-08-26T03:06:41.547Z,100527.60
2022-08-26T03:11:47.654Z,100525.60
2022-08-26T03:16:54.852Z,100520.00
2022-08-26T03:22:00.216Z,100517.60
2022-08-26T03:27:07.272Z,100520.20
2022-08-26T03:32:11.608Z,100524.80
2022-08-26T03:37:16.126Z,100515.20
2022-08-26T03:42:22.664Z,100509.00
2022-08-26T03:47:26.751Z,100509.20
2022-08-26T03:52:31.996Z,100507.20
2022-08-26T03:57:36.653Z,100504.60
2022-08-26T04:02:40.962Z,100509.80
2022-08-26T04:07:46.815Z,100511.00
2022-08-26T04:12:52.772Z,100509.00
2022-08-26T04:17:57.267Z,100509.40
2022-08-26T04:23:02.209Z,100516.40
2022-08-26T04:28:07.315Z,100520.60
2022-08-26T04:33:14.329Z,100527.00
2022-08-26T04:38:20.525Z,100522.60
2022-08-26T04:43:30.920Z,100525.00
2022-08-26T04:48:35.944Z,100521.60
2022-08-26T04:53:40.413Z,100523.80
2022-08-26T04:58:44.835Z,100529.00
2022-08-26T05:03:50.338Z,100529.60
2022-08-26T05:08:56.078Z,100534.00
2022-08-26T05:14:02.340Z,100533.80
2022-08-26T05:19:08.385Z,100535.00
2022-08-26T05:24:13.488Z,100539.80
2022-08-26T05:29:18.048Z,100540.60
2022-08-26T05:34:25.743Z,100538.00
2022-08-26T05:39:35.233Z,100542.20
2022-08-26T05:44:53.819Z,100545.00
2022-08-26T05:50:02.628Z,100546.40
2022-08-26T05:55:07.550Z,100551.60
2022-08-26T06:00:15.985Z,100551.40
2022-08-26T06:05:21.105Z,100545.20
2022-08-26T06:10:32.401Z,100540.60
2022-08-26T06:15:46.051Z,100538.80
2022-08-26T06:20:57.689Z,100537.00
2022-08-26T06:26:04.073Z,100543.60
2022-08-26T06:31:08.322Z,100547.40
2022-08-26T06:36:22.138Z,100544.60
2022-08-26T06:41:28.572Z,100552.40
2022-08-26T06:46:33.779Z,100551.20
2022-08-26T06:51:41.286Z,100547.40
2022-08-26T06:56:45.559Z,100548.40
2022-08-26T07:01:53.541Z,100549.20
2022-08-26T07:06:58.428Z,100543.20
2022-08-26T07:12:02.839Z,100551.00
2022-08-26T07:17:12.178Z,100551.20
2022-08-26T07:22:19.202Z,100552.20
2022-08-26T07:27:26.392Z,100548.40
2022-08-26T07:32:30.645Z,100545.80
2022-08-26T07:37:39.227Z,100546.40
2022-08-26T07:42:43.718Z,100548.00
2022-08-26T07:47:48.577Z,100551.00
2022-08-26T07:52:52.610Z,100550.60
2022-08-26T07:57:58.420Z,100561.40
2022-08-26T08:03:06.390Z,100566.40
2022-08-26T08:08:17.320Z,100569.00
2022-08-26T08:13:33.464Z,100567.80
2022-08-26T08:18:37.540Z,100565.20
2022-08-26T08:23:41.888Z,100559.80
2022-08-26T08:28:49.402Z,100559.80
2022-08-26T08:33:54.347Z,100553.60
2022-08-26T08:38:58.390Z,100543.00
2022-08-26T08:44:04.531Z,100539.40
2022-08-26T08:49:11.583Z,100533.00
2022-08-26T08:54:16.531Z,100527.00
2022-08-26T08:59:24.588Z,100531.40
2022-08-26T09:05:17.810Z,100539.40
2022-08-26T09:10:34.119Z,100540.40
2022-08-26T09:16:17.439Z,100536.20
2022-08-26T09:21:26.213Z,100535.60
2022-08-26T09:26:48.170Z,100519.40
2022-08-26T09:32:14.253Z,100532.60
2022-08-26T09:43:09.408Z,100514.00
2022-08-26T09:48:36.646Z,100520.20
2022-08-26T09:54:30.248Z,100516.80
2022-08-26T09:59:34.892Z,100509.40
2022-08-26T10:04:39.284Z,100507.60
2022-08-26T10:09:45.057Z,100512.80
2022-08-26T10:14:57.134Z,100514.80
2022-08-26T10:20:37.071Z,100515.60
2022-08-26T10:25:54.099Z,100512.80
2022-08-26T10:31:51.410Z,100512.60
2022-08-26T10:37:16.254Z,100513.20
2022-08-26T10:43:00.489Z,100505.60
2022-08-26T10:48:18.679Z,100510.40
2022-08-26T10:54:00.874Z,100508.20
2022-08-26T10:59:33.084Z,100504.80
2022-08-26T11:04:56.278Z,100502.40
2022-08-26T11:10:22.606Z,100498.80
2022-08-26T11:16:03.295Z,100491.20
2022-08-26T11:21:57.449Z,100485.20
2022-08-26T11:27:06.815Z,100469.80
2022-08-26T11:32:56.667Z,100478.40
2022-08-26T11:38:32.286Z,100459.40
2022-08-26T11:43:43.358Z,100463.60
2022-08-26T11:48:49.306Z,100459.00
2022-08-26T11:54:13.242Z,100457.60
2022-08-26T12:04:49.941Z,100445.20
2022-08-26T12:10:02.710Z,100441.40
2022-08-26T12:15:23.478Z,100439.60
2022-08-26T12:20:55.090Z,100442.60
2022-08-26T12:26:23.771Z,100435.80
2022-08-26T12:31:32.173Z,100418.80
2022-08-26T12:36:47.492Z,100423.40
2022-08-26T12:41:58.406Z,100420.60
2022-08-26T12:47:35.199Z,100414.60
2022-08-26T12:53:13.180Z,100412.40
2022-08-26T12:58:17.824Z,100395.00
2022-08-26T13:03:48.680Z,100404.60
2022-08-26T13:08:58.295Z,100394.40
2022-08-26T13:14:23.779Z,100390.40
2022-08-26T13:19:30.152Z,100383.40
2022-08-26T13:24:42.919Z,100370.00
2022-08-26T13:29:48.579Z,100365.40
2022-08-26T13:34:57.606Z,100370.40
2022-08-26T13:40:07.460Z,100364.60
2022-08-26T13:45:12.622Z,100363.40
2022-08-26T13:50:17.080Z,100356.00
2022-08-26T13:55:21.528Z,100350.20
2022-08-26T14:00:26.842Z,100357.60
2022-08-26T14:05:31.972Z,100353.40
2022-08-26T14:10:37.536Z,100349.80
2022-08-26T14:15:42.771Z,100346.60
2022-08-26T14:20:51.254Z,100342.00
2022-08-26T14:25:57.460Z,100337.40
2022-08-26T14:31:05.257Z,100324.00
2022-08-26T14:36:29.733Z,100327.00
2022-08-26T14:41:41.170Z,100317.00
2022-08-26T14:46:51.399Z,100312.40
2022-08-26T14:52:14.375Z,100306.40
2022-08-26T14:57:23.876Z,100292.60
2022-08-26T15:02:33.146Z,100284.40
2022-08-26T15:07:40.333Z,100279.40
2022-08-26T15:12:45.642Z,100276.80
2022-08-26T15:17:51.203Z,100278.20
2022-08-26T15:22:55.135Z,100281.00
2022-08-26T15:28:02.303Z,100279.80
2022-08-26T15:33:15.227Z,100276.40
2022-08-26T15:38:22.081Z,100277.40
2022-08-26T15:43:28.975Z,100274.80
2022-08-26T15:48:33.335Z,100273.40
2022-08-26T15:53:37.691Z,100272.00
2022-08-26T15:58:44.904Z,100270.00
2022-08-26T16:03:56.074Z,100271.20
2022-08-26T16:09:01.100Z,100270.80
2022-08-26T16:14:06.580Z,100268.20
2022-08-26T16:19:12.371Z,100266.40
2022-08-26T16:24:17.651Z,100261.20
2022-08-26T16:29:23.782Z,100262.60
2022-08-26T16:34:28.043Z,100268.00
2022-08-26T16:39:32.190Z,100258.60
2022-08-26T16:44:46.151Z,100256.60
2022-08-26T16:49:52.131Z,100259.20
2022-08-26T16:54:56.594Z,100254.20
2022-08-26T17:00:07.937Z,100255.20
2022-08-26T17:05:15.688Z,100258.40
2022-08-26T17:10:21.296Z,100262.00
2022-08-26T17:15:26.350Z,100270.00
2022-08-26T17:20:30.731Z,100265.00
2022-08-26T17:25:37.782Z,100270.80
2022-08-26T17:30:43.446Z,100270.80
2022-08-26T17:35:47.450Z,100268.00
2022-08-26T17:40:52.577Z,100271.40
2022-08-26T17:46:06.878Z,100275.80
2022-08-26T17:51:17.104Z,100280.80
2022-08-26T17:56:26.934Z,100282.60
2022-08-26T18:01:31.976Z,100286.40
2022-08-26T18:06:36.420Z,100289.20
2022-08-26T18:11:41.797Z,100290.00
2022-08-26T18:16:46.534Z,100293.20
2022-08-26T18:21:52.539Z,100296.80
2022-08-26T18:26:57.779Z,100297.00
2022-08-26T18:32:02.115Z,100301.00
2022-08-26T18:43:17.062Z,100305.40
2022-08-26T18:48:24.873Z,100310.20
2022-08-26T18:53:32.114Z,100316.80
2022-08-26T18:58:41.599Z,100321.80
2022-08-26T19:03:47.004Z,100320.00
2022-08-26T19:08:51.715Z,100320.80
2022-08-26T19:13:58.247Z,100318.00
2022-08-26T19:19:04.135Z,100316.00
2022-08-26T19:24:17.688Z,100319.00
2022-08-26T19:29:25.350Z,100329.00
2022-08-26T19:34:30.618Z,100327.80
2022-08-26T19:39:35.362Z,100330.60
2022-08-26T19:44:59.140Z,100329.60
2022-08-26T19:50:07.652Z,100337.00
2022-08-26T19:55:20.588Z,100335.60
2022-08-26T20:00:30.284Z,100339.20
2022-08-26T20:05:35.438Z,100345.00
2022-08-26T20:10:40.216Z,100343.00
2022-08-26T20:15:47.400Z,100337.20
2022-08-26T20:21:10.978Z,100342.40
2022-08-26T20:26:15.240Z,100338.00
2022-08-26T20:31:20.057Z,100338.80
2022-08-26T20:36:30.000Z,100342.40
2022-08-26T20:41:34.389Z,100349.20
2022-08-26T20:46:39.283Z,100340.20
2022-08-26T20:51:45.012Z,100340.20
2022-08-26T20:56:53.088Z,100337.40
2022-08-26T21:01:59.479Z,100332.80
2022-08-26T21:07:03.872Z,100331.40
2022-08-26T21:12:09.981Z,100326.00
2022-08-26T21:17:14.788Z,100325.80
2022-08-26T21:22:21.997Z,100319.20
2022-08-26T21:27:27.902Z,100317.80
2022-08-26T21:32:33.469Z,100313.80
2022-08-26T21:37:37.589Z,100309.80
2022-08-26T21:42:41.937Z,100311.60
2022-08-26T21:47:46.979Z,100314.80
2022-08-26T21:52:51.069Z,100316.60
2022-08-26T21:57:55.568Z,100312.40
2022-08-26T22:03:01.444Z,100316.60
2022-08-26T22:08:05.650Z,100313.00
2022-08-26T22:13:10.668Z,100313.00
2022-08-26T22:18:16.346Z,100312.80
2022-08-26T22:23:21.427Z,100311.00
2022-08-26T22:28:26.509Z,100315.20
2022-08-26T22:33:30.672Z,100305.80
2022-08-26T22:38:35.507Z,100313.40
2022-08-26T22:43:39.816Z,100315.40
2022-08-26T22:48:44.389Z,100313.00
2022-08-26T22:53:48.534Z,100311.20
2022-08-26T22:58:54.005Z,100311.40
2022-08-26T23:03:58.439Z,100308.00
2022-08-26T23:09:02.810Z,100300.00
2022-08-26T23:14:10.670Z,100293.40
2022-08-26T23:19:18.088Z,100290.60
2022-08-26T23:24:22.660Z,100289.20
2022-08-26T23:29:28.280Z,100287.60
2022-08-26T23:34:51.918Z,100285.60
2022-08-26T23:39:56.925Z,100279.00
2022-08-26T23:45:01.657Z,100279.40
2022-08-26T23:50:08.221Z,100274.40
2022-08-26T23:55:14.022Z,100272.20
